QTR11K EGLL-OTHH
Flight info
| Callsign | QTR11K |
|---|---|
| Flight time | N/A |
| Altitude | 37000 |
| Route | DET Q70 ITVIP L10 DVR UL9 KONAN UL607 KOK M150 PITES DCT LADAT DCT BADLI DCT BETAG DCT KOVAN DCT HAFUN DCT MANAL DCT TOBAD DCT OBEDI DCT MOKEG DCT OCCEP DCT PIXAL DCT UZVEZ DCT DOLEV DCT ERANA DCT STINO DCT RIKSO/N0490F390 UN128 IMR UN135 VESAR DCT NIKAS DCT BRAVO DCT KTN DCT BASEM DCT ZELAF DCT RASLI P559 GADLI T503 LABIS DCT PUSLA DCT LOROX DCT MGA DCT MUSRI |
| Aircraft | A35K/H-SDE2E3GHIJ3J4J5LM1ORWXY/LB1D1 |
Departure
| Time | 2026-05-04 09:51 |
|---|---|
| Airport | London Heathrow Airport (EGLL) |
Arrival
| Time | N/A |
|---|---|
| Airport | Hamad International Airport (OTHH) |
| Time | Latitude | Longitude | Altitude | Speed | Heading |
|---|---|---|---|---|---|
| 2026-05-04 09:09 | 51.46024 | -0.44885 | 92 ft | 0 kts | 131° |
| 2026-05-04 09:09 | 51.46022 | -0.44882 | 92 ft | 0 kts | 131° |
| 2026-05-04 09:39 | 51.46031 | -0.44899 | 95 ft | 4 kts | 131° |
| 2026-05-04 09:39 | 51.46049 | -0.44931 | 93 ft | 4 kts | 131° |
| 2026-05-04 09:39 | 51.46063 | -0.44957 | 94 ft | 4 kts | 119° |
| 2026-05-04 09:39 | 51.46068 | -0.44993 | 93 ft | 4 kts | 65° |
| 2026-05-04 09:40 | 51.46053 | -0.45023 | 93 ft | 4 kts | 41° |
| 2026-05-04 09:40 | 51.46034 | -0.45050 | 92 ft | 2 kts | 41° |
| 2026-05-04 09:40 | 51.46034 | -0.45051 | 93 ft | 0 kts | 41° |
| 2026-05-04 09:46 | 51.46037 | -0.45046 | 92 ft | 4 kts | 42° |
| 2026-05-04 09:46 | 51.46078 | -0.44987 | 95 ft | 9 kts | 41° |
| 2026-05-04 09:47 | 51.46131 | -0.44912 | 97 ft | 11 kts | 41° |
| 2026-05-04 09:47 | 51.46191 | -0.44827 | 97 ft | 12 kts | 41° |
| 2026-05-04 09:49 | 51.46280 | -0.43866 | 95 ft | 14 kts | 89° |
| 2026-05-04 09:49 | 51.46280 | -0.43698 | 95 ft | 16 kts | 89° |
| 2026-05-04 09:49 | 51.46319 | -0.43545 | 96 ft | 15 kts | 42° |
| 2026-05-04 09:51 | 51.46488 | -0.45565 | 94 ft | 147 kts | 270° |
| 2026-05-04 09:51 | 51.46493 | -0.47463 | 267 ft | 180 kts | 272° |
| 2026-05-04 09:51 | 51.46494 | -0.49483 | 878 ft | 183 kts | 272° |
| 2026-05-04 09:51 | 51.46435 | -0.51544 | 1473 ft | 191 kts | 261° |
| 2026-05-04 09:52 | 51.45871 | -0.53562 | 1669 ft | 213 kts | 230° |
| 2026-05-04 09:52 | 51.44551 | -0.54871 | 1826 ft | 237 kts | 191° |
| 2026-05-04 09:52 | 51.42877 | -0.54591 | 2182 ft | 252 kts | 153° |
| 2026-05-04 09:52 | 51.41499 | -0.52867 | 2909 ft | 253 kts | 133° |
| 2026-05-04 09:53 | 51.40290 | -0.50821 | 3625 ft | 254 kts | 132° |
| 2026-05-04 09:53 | 51.39084 | -0.48763 | 4257 ft | 259 kts | 133° |
| 2026-05-04 09:53 | 51.37827 | -0.46664 | 4934 ft | 263 kts | 134° |
| 2026-05-04 09:53 | 51.36541 | -0.44550 | 5601 ft | 265 kts | 135° |
| 2026-05-04 09:54 | 51.35243 | -0.42436 | 6262 ft | 267 kts | 135° |
| 2026-05-04 09:54 | 51.33927 | -0.40306 | 6879 ft | 271 kts | 135° |
| 2026-05-04 09:54 | 51.33035 | -0.38849 | 7297 ft | 273 kts | 134° |
| 2026-05-04 09:54 | 51.31936 | -0.36403 | 7923 ft | 276 kts | 117° |
| 2026-05-04 09:55 | 51.31475 | -0.33410 | 8503 ft | 283 kts | 92° |
| 2026-05-04 09:55 | 51.31675 | -0.30261 | 9129 ft | 286 kts | 85° |
| 2026-05-04 09:55 | 51.31781 | -0.27076 | 9743 ft | 289 kts | 91° |
| 2026-05-04 09:55 | 51.31776 | -0.23826 | 10269 ft | 296 kts | 92° |
| 2026-05-04 09:56 | 51.31740 | -0.20456 | 10521 ft | 311 kts | 92° |
| 2026-05-04 09:56 | 51.31694 | -0.16913 | 10760 ft | 327 kts | 92° |
| 2026-05-04 09:56 | 51.31643 | -0.13192 | 11038 ft | 341 kts | 92° |
| 2026-05-04 09:56 | 51.31589 | -0.09325 | 11288 ft | 355 kts | 92° |
| 2026-05-04 09:57 | 51.31531 | -0.05298 | 11524 ft | 368 kts | 92° |
| 2026-05-04 09:57 | 51.31471 | -0.01148 | 11837 ft | 377 kts | 92° |
| 2026-05-04 09:57 | 51.31408 | 0.03012 | 12246 ft | 383 kts | 92° |
| 2026-05-04 09:57 | 51.31342 | 0.07284 | 12733 ft | 386 kts | 92° |
| 2026-05-04 09:58 | 51.31274 | 0.11598 | 13214 ft | 390 kts | 92° |
| 2026-05-04 09:58 | 51.31204 | 0.15953 | 13700 ft | 393 kts | 92° |
| 2026-05-04 09:58 | 51.31131 | 0.20330 | 14139 ft | 396 kts | 93° |
| 2026-05-04 10:00 | 51.30559 | 0.51847 | 17180 ft | 415 kts | 93° |
| 2026-05-04 10:00 | 51.30463 | 0.56420 | 17612 ft | 417 kts | 94° |
| 2026-05-04 10:02 | 51.25213 | 0.88133 | 20300 ft | 430 kts | 109° |